Aviation Digital Data Service (ADDS)

Output produced by METARs form (0644 UTC 21 August 2017)
found at http://aviationweather.gov/adds/metars/
 
KLBE 210520Z 2106/2206 16004KT P6SM SCT250 
     FM211600 24009KT P6SM BKN050 
     FM212300 23005KT P6SM SCT250